sensor_id;sensor_type;location;lat;lon;timestamp;P1;durP1;ratioP1;P2;durP2;ratioP2
58412;SDS011;44209;52.952;6.790;2023-02-15T11:17:33;60.07;;;37.10;;
58412;SDS011;44209;52.952;6.790;2023-02-15T11:22:47;58.80;;;35.25;;
58412;SDS011;44209;52.952;6.790;2023-02-15T11:25:17;59.33;;;37.67;;
58412;SDS011;44209;52.952;6.790;2023-02-15T11:27:47;58.83;;;38.73;;
58412;SDS011;44209;52.952;6.790;2023-02-15T11:30:17;63.23;;;39.83;;
58412;SDS011;44209;52.952;6.790;2023-02-15T11:32:46;57.28;;;36.72;;
58412;SDS011;44209;52.952;6.790;2023-02-15T11:35:32;56.67;;;36.70;;
58412;SDS011;44209;52.952;6.790;2023-02-15T11:38:14;56.87;;;37.67;;
58412;SDS011;44209;52.952;6.790;2023-02-15T11:40:47;55.60;;;37.03;;
58412;SDS011;44209;52.952;6.790;2023-02-15T11:46:08;58.13;;;35.60;;
58412;SDS011;44209;52.952;6.790;2023-02-15T11:48:37;56.67;;;36.17;;
58412;SDS011;44209;52.952;6.790;2023-02-15T11:51:04;59.17;;;36.03;;
58412;SDS011;44209;52.952;6.790;2023-02-15T11:53:33;55.50;;;35.20;;
58412;SDS011;44209;52.952;6.790;2023-02-15T11:56:02;56.50;;;35.53;;
58412;SDS011;44209;52.952;6.790;2023-02-15T11:58:45;55.80;;;34.70;;
58412;SDS011;44209;52.952;6.790;2023-02-15T12:09:42;61.30;;;37.37;;
58412;SDS011;44209;52.952;6.790;2023-02-15T12:12:34;55.93;;;36.07;;
58412;SDS011;44209;52.952;6.790;2023-02-15T12:15:02;57.93;;;34.83;;
58412;SDS011;44209;52.952;6.790;2023-02-15T12:17:34;58.10;;;37.40;;
58412;SDS011;44209;52.952;6.790;2023-02-15T12:22:45;60.43;;;37.17;;
58412;SDS011;44209;52.952;6.790;2023-02-15T12:28:00;57.73;;;35.73;;
58412;SDS011;44209;52.952;6.790;2023-02-15T12:30:31;57.80;;;35.23;;
58412;SDS011;44209;52.952;6.790;2023-02-15T12:33:10;61.87;;;37.63;;
58412;SDS011;44209;52.952;6.790;2023-02-15T12:35:41;60.17;;;36.80;;
58412;SDS011;44209;52.952;6.790;2023-02-15T12:40:34;60.23;;;36.73;;
58412;SDS011;44209;52.952;6.790;2023-02-15T12:43:04;64.13;;;35.37;;
58412;SDS011;44209;52.952;6.790;2023-02-15T12:45:49;64.20;;;35.60;;
58412;SDS011;44209;52.952;6.790;2023-02-15T12:48:16;57.60;;;35.60;;
58412;SDS011;44209;52.952;6.790;2023-02-15T12:50:52;58.47;;;34.97;;
58412;SDS011;44209;52.952;6.790;2023-02-15T12:53:33;58.73;;;33.93;;
58412;SDS011;44209;52.952;6.790;2023-02-15T12:56:01;51.90;;;33.73;;
58412;SDS011;44209;52.952;6.790;2023-02-15T12:58:33;56.50;;;33.63;;
58412;SDS011;44209;52.952;6.790;2023-02-15T13:03:34;54.83;;;33.10;;
58412;SDS011;44209;52.952;6.790;2023-02-15T13:06:01;57.03;;;32.93;;
58412;SDS011;44209;52.952;6.790;2023-02-15T13:08:33;48.93;;;30.00;;
58412;SDS011;44209;52.952;6.790;2023-02-15T13:11:11;55.20;;;32.83;;
58412;SDS011;44209;52.952;6.790;2023-02-15T13:13:58;52.47;;;31.87;;
58412;SDS011;44209;52.952;6.790;2023-02-15T13:16:31;52.33;;;31.67;;
58412;SDS011;44209;52.952;6.790;2023-02-15T13:19:02;52.53;;;31.73;;
58412;SDS011;44209;52.952;6.790;2023-02-15T13:21:36;55.40;;;31.67;;
58412;SDS011;44209;52.952;6.790;2023-02-15T13:24:05;51.90;;;30.87;;
58412;SDS011;44209;52.952;6.790;2023-02-15T13:26:41;50.07;;;31.13;;
58412;SDS011;44209;52.952;6.790;2023-02-15T13:29:15;50.77;;;30.77;;
58412;SDS011;44209;52.952;6.790;2023-02-15T13:31:46;52.40;;;31.87;;
58412;SDS011;44209;52.952;6.790;2023-02-15T13:34:25;50.90;;;32.03;;
58412;SDS011;44209;52.952;6.790;2023-02-15T13:42:37;52.97;;;32.13;;
58412;SDS011;44209;52.952;6.790;2023-02-15T13:45:56;51.30;;;32.33;;
58412;SDS011;44209;52.952;6.790;2023-02-15T13:54:19;49.40;;;31.63;;
58412;SDS011;44209;52.952;6.790;2023-02-15T13:57:08;57.10;;;31.70;;
58412;SDS011;44209;52.952;6.790;2023-02-15T14:00:11;49.93;;;30.57;;
58412;SDS011;44209;52.952;6.790;2023-02-15T14:28:43;50.77;;;31.40;;
58412;SDS011;44209;52.952;6.790;2023-02-15T14:31:18;48.17;;;29.87;;
58412;SDS011;44209;52.952;6.790;2023-02-15T14:33:53;49.70;;;30.13;;
58412;SDS011;44209;52.952;6.790;2023-02-15T14:36:22;47.60;;;28.67;;
58412;SDS011;44209;52.952;6.790;2023-02-15T14:42:27;47.87;;;29.47;;
58412;SDS011;44209;52.952;6.790;2023-02-15T14:45:05;48.30;;;29.20;;
58412;SDS011;44209;52.952;6.790;2023-02-15T14:50:37;46.23;;;29.27;;
58412;SDS011;44209;52.952;6.790;2023-02-15T14:56:04;50.90;;;31.30;;
58412;SDS011;44209;52.952;6.790;2023-02-15T15:01:32;48.50;;;30.37;;
58412;SDS011;44209;52.952;6.790;2023-02-15T15:04:04;47.57;;;29.33;;
58412;SDS011;44209;52.952;6.790;2023-02-15T15:06:38;48.10;;;30.53;;
58412;SDS011;44209;52.952;6.790;2023-02-15T15:09:14;50.73;;;29.17;;
58412;SDS011;44209;52.952;6.790;2023-02-15T15:11:51;49.97;;;30.67;;
58412;SDS011;44209;52.952;6.790;2023-02-15T15:14:51;49.57;;;30.57;;
58412;SDS011;44209;52.952;6.790;2023-02-15T15:17:11;47.50;;;30.17;;
58412;SDS011;44209;52.952;6.790;2023-02-15T15:22:27;47.70;;;28.77;;
58412;SDS011;44209;52.952;6.790;2023-02-15T15:24:58;46.77;;;30.67;;
58412;SDS011;44209;52.952;6.790;2023-02-15T15:27:53;49.90;;;30.53;;
58412;SDS011;44209;52.952;6.790;2023-02-15T15:43:34;52.33;;;31.40;;
58412;SDS011;44209;52.952;6.790;2023-02-15T15:48:44;53.73;;;30.77;;
58412;SDS011;44209;52.952;6.790;2023-02-15T15:53:43;50.10;;;30.95;;
58412;SDS011;44209;52.952;6.790;2023-02-15T15:56:15;48.70;;;30.55;;
58412;SDS011;44209;52.952;6.790;2023-02-15T15:58:55;48.63;;;29.98;;
58412;SDS011;44209;52.952;6.790;2023-02-15T16:01:27;50.50;;;30.50;;
58412;SDS011;44209;52.952;6.790;2023-02-15T16:03:55;49.07;;;29.77;;
58412;SDS011;44209;52.952;6.790;2023-02-15T16:06:26;48.53;;;30.83;;
58412;SDS011;44209;52.952;6.790;2023-02-15T16:09:16;50.90;;;30.83;;
58412;SDS011;44209;52.952;6.790;2023-02-15T16:11:42;46.40;;;29.80;;
58412;SDS011;44209;52.952;6.790;2023-02-15T16:14:12;46.60;;;29.03;;
58412;SDS011;44209;52.952;6.790;2023-02-15T16:17:00;49.03;;;29.67;;
58412;SDS011;44209;52.952;6.790;2023-02-15T16:19:30;46.23;;;29.43;;
58412;SDS011;44209;52.952;6.790;2023-02-15T16:22:00;52.83;;;30.80;;
58412;SDS011;44209;52.952;6.790;2023-02-15T16:29:46;49.53;;;29.23;;
58412;SDS011;44209;52.952;6.790;2023-02-15T16:32:16;45.77;;;28.90;;
58412;SDS011;44209;52.952;6.790;2023-02-15T16:34:54;48.20;;;29.33;;
58412;SDS011;44209;52.952;6.790;2023-02-15T16:37:25;46.77;;;28.17;;
58412;SDS011;44209;52.952;6.790;2023-02-15T16:39:55;47.10;;;27.87;;
58412;SDS011;44209;52.952;6.790;2023-02-15T16:42:21;46.67;;;28.80;;
58412;SDS011;44209;52.952;6.790;2023-02-15T16:44:50;44.97;;;28.33;;
58412;SDS011;44209;52.952;6.790;2023-02-15T16:47:29;48.57;;;28.50;;
58412;SDS011;44209;52.952;6.790;2023-02-15T16:49:59;49.20;;;28.47;;
58412;SDS011;44209;52.952;6.790;2023-02-15T16:52:29;49.43;;;28.40;;
58412;SDS011;44209;52.952;6.790;2023-02-15T16:54:59;50.07;;;29.77;;
58412;SDS011;44209;52.952;6.790;2023-02-15T16:57:30;49.00;;;29.00;;
58412;SDS011;44209;52.952;6.790;2023-02-15T17:00:14;45.47;;;27.23;;
58412;SDS011;44209;52.952;6.790;2023-02-15T17:05:49;51.40;;;29.80;;
58412;SDS011;44209;52.952;6.790;2023-02-15T17:11:04;48.17;;;28.90;;
58412;SDS011;44209;52.952;6.790;2023-02-15T17:13:39;48.93;;;28.83;;
58412;SDS011;44209;52.952;6.790;2023-02-15T17:16:28;50.03;;;28.27;;
58412;SDS011;44209;52.952;6.790;2023-02-15T17:18:59;51.80;;;29.83;;
58412;SDS011;44209;52.952;6.790;2023-02-15T17:21:35;54.90;;;31.27;;
58412;SDS011;44209;52.952;6.790;2023-02-15T17:24:04;54.47;;;31.92;;
58412;SDS011;44209;52.952;6.790;2023-02-15T17:26:31;50.20;;;29.37;;
58412;SDS011;44209;52.952;6.790;2023-02-15T17:29:46;50.07;;;30.43;;
58412;SDS011;44209;52.952;6.790;2023-02-15T17:31:53;50.63;;;29.93;;
58412;SDS011;44209;52.952;6.790;2023-02-15T17:42:50;47.03;;;29.97;;
58412;SDS011;44209;52.952;6.790;2023-02-15T17:45:16;49.20;;;30.43;;
58412;SDS011;44209;52.952;6.790;2023-02-15T17:47:42;54.23;;;31.10;;
58412;SDS011;44209;52.952;6.790;2023-02-15T17:50:23;50.60;;;30.00;;
58412;SDS011;44209;52.952;6.790;2023-02-15T17:52:51;53.20;;;30.20;;
58412;SDS011;44209;52.952;6.790;2023-02-15T17:55:19;53.40;;;31.73;;
58412;SDS011;44209;52.952;6.790;2023-02-15T17:58:14;52.70;;;31.90;;
58412;SDS011;44209;52.952;6.790;2023-02-15T18:01:03;54.83;;;31.97;;
58412;SDS011;44209;52.952;6.790;2023-02-15T18:03:51;55.17;;;31.63;;
58412;SDS011;44209;52.952;6.790;2023-02-15T18:06:37;55.53;;;32.13;;
58412;SDS011;44209;52.952;6.790;2023-02-15T18:09:23;54.67;;;32.77;;
58412;SDS011;44209;52.952;6.790;2023-02-15T18:14:51;52.03;;;31.13;;
58412;SDS011;44209;52.952;6.790;2023-02-15T18:20:00;55.87;;;30.70;;
58412;SDS011;44209;52.952;6.790;2023-02-15T18:22:31;54.03;;;33.07;;
58412;SDS011;44209;52.952;6.790;2023-02-15T18:24:57;52.23;;;32.67;;
58412;SDS011;44209;52.952;6.790;2023-02-15T18:27:23;55.03;;;33.50;;
58412;SDS011;44209;52.952;6.790;2023-02-15T18:29:49;53.10;;;32.10;;
58412;SDS011;44209;52.952;6.790;2023-02-15T18:32:20;53.93;;;33.40;;
58412;SDS011;44209;52.952;6.790;2023-02-15T18:34:50;53.07;;;32.10;;
58412;SDS011;44209;52.952;6.790;2023-02-15T18:37:19;54.63;;;32.20;;
58412;SDS011;44209;52.952;6.790;2023-02-15T18:39:52;54.67;;;32.57;;
58412;SDS011;44209;52.952;6.790;2023-02-15T18:44:43;58.80;;;33.60;;
58412;SDS011;44209;52.952;6.790;2023-02-15T18:47:09;53.90;;;32.17;;
58412;SDS011;44209;52.952;6.790;2023-02-15T18:49:35;54.07;;;33.33;;
58412;SDS011;44209;52.952;6.790;2023-02-15T18:52:00;54.20;;;33.87;;
58412;SDS011;44209;52.952;6.790;2023-02-15T18:54:27;52.63;;;32.57;;
58412;SDS011;44209;52.952;6.790;2023-02-15T18:56:54;51.30;;;33.23;;
58412;SDS011;44209;52.952;6.790;2023-02-15T18:59:22;56.50;;;33.33;;
58412;SDS011;44209;52.952;6.790;2023-02-15T19:01:49;63.57;;;34.97;;
58412;SDS011;44209;52.952;6.790;2023-02-15T19:04:16;57.67;;;35.17;;
58412;SDS011;44209;52.952;6.790;2023-02-15T19:06:45;56.53;;;35.10;;
58412;SDS011;44209;52.952;6.790;2023-02-15T19:09:14;56.58;;;36.15;;
58412;SDS011;44209;52.952;6.790;2023-02-15T19:11:42;59.50;;;36.10;;
58412;SDS011;44209;52.952;6.790;2023-02-15T19:17:00;58.60;;;33.90;;
58412;SDS011;44209;52.952;6.790;2023-02-15T19:19:25;53.87;;;35.00;;
58412;SDS011;44209;52.952;6.790;2023-02-15T19:21:51;62.67;;;36.80;;
58412;SDS011;44209;52.952;6.790;2023-02-15T19:24:35;59.33;;;36.07;;
58412;SDS011;44209;52.952;6.790;2023-02-15T19:27:03;58.53;;;35.83;;
58412;SDS011;44209;52.952;6.790;2023-02-15T19:29:31;55.97;;;36.03;;
58412;SDS011;44209;52.952;6.790;2023-02-15T19:31:57;60.33;;;36.87;;
58412;SDS011;44209;52.952;6.790;2023-02-15T19:34:22;66.43;;;36.97;;
58412;SDS011;44209;52.952;6.790;2023-02-15T19:36:49;59.00;;;37.33;;
58412;SDS011;44209;52.952;6.790;2023-02-15T19:41:49;51.83;;;34.88;;
58412;SDS011;44209;52.952;6.790;2023-02-15T19:44:15;58.47;;;36.33;;
58412;SDS011;44209;52.952;6.790;2023-02-15T19:46:41;58.43;;;35.67;;
58412;SDS011;44209;52.952;6.790;2023-02-15T19:49:07;63.93;;;38.10;;
58412;SDS011;44209;52.952;6.790;2023-02-15T19:51:34;59.23;;;36.70;;
58412;SDS011;44209;52.952;6.790;2023-02-15T19:54:00;57.20;;;37.13;;
58412;SDS011;44209;52.952;6.790;2023-02-15T19:56:26;60.80;;;36.30;;
58412;SDS011;44209;52.952;6.790;2023-02-15T19:58:52;60.03;;;36.33;;
58412;SDS011;44209;52.952;6.790;2023-02-15T20:01:21;61.20;;;37.20;;
58412;SDS011;44209;52.952;6.790;2023-02-15T20:03:50;66.40;;;38.70;;
58412;SDS011;44209;52.952;6.790;2023-02-15T20:06:16;68.30;;;37.27;;
58412;SDS011;44209;52.952;6.790;2023-02-15T20:08:42;60.23;;;37.23;;
58412;SDS011;44209;52.952;6.790;2023-02-15T20:11:09;68.20;;;39.63;;
58412;SDS011;44209;52.952;6.790;2023-02-15T20:13:37;61.07;;;37.27;;
58412;SDS011;44209;52.952;6.790;2023-02-15T20:16:04;57.00;;;36.00;;
58412;SDS011;44209;52.952;6.790;2023-02-15T20:18:32;60.17;;;36.83;;
58412;SDS011;44209;52.952;6.790;2023-02-15T20:20:59;66.60;;;39.07;;
58412;SDS011;44209;52.952;6.790;2023-02-15T20:23:35;59.40;;;37.73;;
58412;SDS011;44209;52.952;6.790;2023-02-15T20:26:09;58.57;;;37.60;;
58412;SDS011;44209;52.952;6.790;2023-02-15T20:28:38;60.70;;;37.27;;
58412;SDS011;44209;52.952;6.790;2023-02-15T20:31:03;60.10;;;37.80;;
58412;SDS011;44209;52.952;6.790;2023-02-15T20:33:30;63.70;;;38.77;;
58412;SDS011;44209;52.952;6.790;2023-02-15T20:35:55;61.03;;;37.13;;
58412;SDS011;44209;52.952;6.790;2023-02-15T20:38:25;65.43;;;37.53;;
58412;SDS011;44209;52.952;6.790;2023-02-15T20:40:53;63.53;;;37.50;;
58412;SDS011;44209;52.952;6.790;2023-02-15T20:43:39;64.30;;;39.30;;
58412;SDS011;44209;52.952;6.790;2023-02-15T20:46:05;63.60;;;39.40;;
58412;SDS011;44209;52.952;6.790;2023-02-15T20:48:31;62.90;;;39.37;;
58412;SDS011;44209;52.952;6.790;2023-02-15T20:50:57;60.73;;;38.17;;
58412;SDS011;44209;52.952;6.790;2023-02-15T20:53:24;58.87;;;36.67;;
58412;SDS011;44209;52.952;6.790;2023-02-15T20:55:51;62.23;;;37.37;;
58412;SDS011;44209;52.952;6.790;2023-02-15T20:58:27;63.80;;;39.93;;
58412;SDS011;44209;52.952;6.790;2023-02-15T21:00:54;66.20;;;39.37;;
58412;SDS011;44209;52.952;6.790;2023-02-15T21:03:22;67.90;;;39.93;;
58412;SDS011;44209;52.952;6.790;2023-02-15T21:05:51;68.30;;;40.20;;
58412;SDS011;44209;52.952;6.790;2023-02-15T21:08:21;72.77;;;42.17;;
58412;SDS011;44209;52.952;6.790;2023-02-15T21:10:48;70.63;;;40.73;;
58412;SDS011;44209;52.952;6.790;2023-02-15T21:15:49;67.33;;;39.93;;
58412;SDS011;44209;52.952;6.790;2023-02-15T21:18:25;62.20;;;38.90;;
58412;SDS011;44209;52.952;6.790;2023-02-15T21:20:55;64.53;;;40.30;;
58412;SDS011;44209;52.952;6.790;2023-02-15T21:23:25;68.13;;;41.90;;
58412;SDS011;44209;52.952;6.790;2023-02-15T21:25:53;67.10;;;42.30;;
58412;SDS011;44209;52.952;6.790;2023-02-15T21:28:21;71.07;;;42.63;;
58412;SDS011;44209;52.952;6.790;2023-02-15T21:30:49;69.37;;;43.17;;
58412;SDS011;44209;52.952;6.790;2023-02-15T21:33:16;74.67;;;43.73;;
58412;SDS011;44209;52.952;6.790;2023-02-15T21:35:42;71.83;;;44.00;;
58412;SDS011;44209;52.952;6.790;2023-02-15T21:38:14;68.57;;;42.17;;
58412;SDS011;44209;52.952;6.790;2023-02-15T21:40:42;68.80;;;43.40;;
58412;SDS011;44209;52.952;6.790;2023-02-15T21:43:15;71.27;;;43.23;;
58412;SDS011;44209;52.952;6.790;2023-02-15T21:46:12;70.63;;;43.53;;
58412;SDS011;44209;52.952;6.790;2023-02-15T21:49:02;68.10;;;43.07;;
58412;SDS011;44209;52.952;6.790;2023-02-15T21:51:30;67.63;;;41.13;;
58412;SDS011;44209;52.952;6.790;2023-02-15T21:54:16;71.53;;;43.53;;
58412;SDS011;44209;52.952;6.790;2023-02-15T21:56:43;69.47;;;41.60;;
58412;SDS011;44209;52.952;6.790;2023-02-15T21:59:12;70.13;;;43.17;;
58412;SDS011;44209;52.952;6.790;2023-02-15T22:01:43;69.57;;;43.17;;
58412;SDS011;44209;52.952;6.790;2023-02-15T22:04:18;70.47;;;42.43;;
58412;SDS011;44209;52.952;6.790;2023-02-15T22:06:47;70.97;;;42.27;;
58412;SDS011;44209;52.952;6.790;2023-02-15T22:09:20;70.57;;;42.50;;
58412;SDS011;44209;52.952;6.790;2023-02-15T22:11:48;74.23;;;42.73;;
58412;SDS011;44209;52.952;6.790;2023-02-15T22:17:00;75.20;;;43.83;;
58412;SDS011;44209;52.952;6.790;2023-02-15T22:19:27;72.70;;;43.53;;
58412;SDS011;44209;52.952;6.790;2023-02-15T22:21:54;70.90;;;42.27;;
58412;SDS011;44209;52.952;6.790;2023-02-15T22:24:20;75.77;;;43.67;;
58412;SDS011;44209;52.952;6.790;2023-02-15T22:26:46;74.87;;;42.63;;
58412;SDS011;44209;52.952;6.790;2023-02-15T22:29:15;75.63;;;43.97;;
58412;SDS011;44209;52.952;6.790;2023-02-15T22:31:41;71.70;;;43.10;;
58412;SDS011;44209;52.952;6.790;2023-02-15T22:34:24;71.40;;;43.10;;
58412;SDS011;44209;52.952;6.790;2023-02-15T22:36:52;75.03;;;43.93;;
58412;SDS011;44209;52.952;6.790;2023-02-15T22:39:18;73.17;;;43.27;;
58412;SDS011;44209;52.952;6.790;2023-02-15T22:41:46;70.87;;;42.87;;
58412;SDS011;44209;52.952;6.790;2023-02-15T22:44:12;71.93;;;44.60;;
58412;SDS011;44209;52.952;6.790;2023-02-15T22:46:43;72.38;;;42.05;;
58412;SDS011;44209;52.952;6.790;2023-02-15T22:49:12;77.90;;;45.17;;
58412;SDS011;44209;52.952;6.790;2023-02-15T22:51:39;70.43;;;42.73;;
58412;SDS011;44209;52.952;6.790;2023-02-15T22:54:05;75.30;;;44.47;;
58412;SDS011;44209;52.952;6.790;2023-02-15T22:59:01;74.07;;;43.70;;
58412;SDS011;44209;52.952;6.790;2023-02-15T23:01:30;71.93;;;42.93;;
58412;SDS011;44209;52.952;6.790;2023-02-15T23:03:57;73.70;;;43.47;;
58412;SDS011;44209;52.952;6.790;2023-02-15T23:06:23;70.03;;;44.50;;
58412;SDS011;44209;52.952;6.790;2023-02-15T23:08:49;73.00;;;44.43;;
58412;SDS011;44209;52.952;6.790;2023-02-15T23:11:14;74.40;;;43.80;;
58412;SDS011;44209;52.952;6.790;2023-02-15T23:13:41;71.57;;;44.20;;
58412;SDS011;44209;52.952;6.790;2023-02-15T23:16:11;77.80;;;44.53;;
58412;SDS011;44209;52.952;6.790;2023-02-15T23:18:39;73.90;;;43.60;;
58412;SDS011;44209;52.952;6.790;2023-02-15T23:21:25;76.73;;;46.60;;
58412;SDS011;44209;52.952;6.790;2023-02-15T23:23:55;76.13;;;45.47;;
58412;SDS011;44209;52.952;6.790;2023-02-15T23:26:28;75.43;;;45.77;;
58412;SDS011;44209;52.952;6.790;2023-02-15T23:28:56;75.85;;;45.35;;
58412;SDS011;44209;52.952;6.790;2023-02-15T23:31:28;74.30;;;44.23;;
58412;SDS011;44209;52.952;6.790;2023-02-15T23:33:56;75.23;;;45.10;;
58412;SDS011;44209;52.952;6.790;2023-02-15T23:36:36;78.43;;;45.07;;
58412;SDS011;44209;52.952;6.790;2023-02-15T23:39:13;74.10;;;44.13;;
58412;SDS011;44209;52.952;6.790;2023-02-15T23:42:00;76.83;;;45.03;;
58412;SDS011;44209;52.952;6.790;2023-02-15T23:44:29;75.77;;;43.40;;
58412;SDS011;44209;52.952;6.790;2023-02-15T23:46:55;70.27;;;43.80;;
58412;SDS011;44209;52.952;6.790;2023-02-15T23:49:22;74.43;;;44.07;;
58412;SDS011;44209;52.952;6.790;2023-02-15T23:51:52;70.60;;;44.47;;
58412;SDS011;44209;52.952;6.790;2023-02-15T23:54:20;71.93;;;44.63;;
58412;SDS011;44209;52.952;6.790;2023-02-15T23:56:48;78.30;;;44.13;;
58412;SDS011;44209;52.952;6.790;2023-02-15T23:59:24;77.17;;;45.40;;
